createdAt,value
2018-11-06T00:00:05.751Z,98059.45
2018-11-06T00:11:10.741Z,98071.73
2018-11-06T00:14:15.815Z,98073.50
2018-11-06T00:17:22.901Z,98073.41
2018-11-06T00:20:29.662Z,98071.75
2018-11-06T00:23:36.859Z,98068.19
2018-11-06T00:26:41.914Z,98068.67
2018-11-06T00:29:49.086Z,98073.52
2018-11-06T00:32:54.185Z,98067.64
2018-11-06T00:35:59.242Z,98067.38
2018-11-06T00:39:05.878Z,98063.30
2018-11-06T00:42:12.586Z,98067.61
2018-11-06T00:45:17.646Z,98067.61
2018-11-06T00:48:24.718Z,98064.30
2018-11-06T00:51:29.932Z,98066.48
2018-11-06T00:54:36.942Z,98069.38
2018-11-06T00:57:43.055Z,98064.03
2018-11-06T01:00:48.124Z,98053.62
2018-11-06T01:03:58.833Z,98063.01
2018-11-06T01:07:04.289Z,98070.22
2018-11-06T01:10:11.515Z,98065.84
2018-11-06T01:13:16.517Z,98062.97
2018-11-06T01:16:21.870Z,98062.73
2018-11-06T01:19:28.559Z,98057.73
2018-11-06T01:22:33.599Z,98072.87
2018-11-06T01:25:38.626Z,98068.28
2018-11-06T01:28:43.633Z,98063.45
2018-11-06T01:31:48.659Z,98061.67
2018-11-06T01:34:53.671Z,98062.02
2018-11-06T01:38:00.790Z,98066.75
2018-11-06T01:41:05.835Z,98074.38
2018-11-06T01:44:10.839Z,98070.78
2018-11-06T01:47:15.862Z,98073.17
2018-11-06T01:50:20.890Z,98080.87
2018-11-06T01:53:25.913Z,98078.87
2018-11-06T01:56:30.934Z,98086.98
2018-11-06T01:59:45.022Z,98089.00
2018-11-06T02:02:50.055Z,98096.62
2018-11-06T02:05:55.070Z,98094.58
2018-11-06T02:09:00.082Z,98085.22
2018-11-06T02:12:05.146Z,98082.53
2018-11-06T02:15:10.209Z,98093.07
2018-11-06T02:18:15.239Z,98093.07
2018-11-06T02:21:20.291Z,98095.05
2018-11-06T02:24:25.307Z,98089.47
2018-11-06T02:27:30.325Z,98081.32
2018-11-06T02:30:35.362Z,98068.13
2018-11-06T02:41:39.598Z,98077.42
2018-11-06T02:44:44.605Z,98067.66
2018-11-06T02:47:49.646Z,98065.62
2018-11-06T02:50:54.661Z,98060.55
2018-11-06T02:57:58.960Z,98066.94
2018-11-06T03:01:04.260Z,98074.17
2018-11-06T03:04:09.262Z,98068.74
2018-11-06T03:07:14.258Z,98061.39
2018-11-06T03:10:19.333Z,98054.25
2018-11-06T03:13:24.261Z,98045.37
2018-11-06T03:16:29.330Z,98054.48
2018-11-06T03:19:34.335Z,98055.98
2018-11-06T03:22:39.858Z,98054.22
2018-11-06T03:25:44.837Z,98060.30
2018-11-06T03:28:50.049Z,98051.86
2018-11-06T03:31:55.055Z,98044.66
2018-11-06T03:35:00.053Z,98053.19
2018-11-06T03:38:05.068Z,98051.59
2018-11-06T03:41:10.050Z,98050.85
2018-11-06T03:44:15.070Z,98046.33
2018-11-06T03:47:20.060Z,98050.31
2018-11-06T03:50:25.051Z,98053.50
2018-11-06T03:53:30.061Z,98058.97
2018-11-06T03:56:35.045Z,98059.63
2018-11-06T03:59:40.048Z,98070.11
2018-11-06T04:02:45.054Z,98072.91
2018-11-06T04:05:50.033Z,98078.02
2018-11-06T04:08:55.118Z,98084.08
2018-11-06T04:12:00.142Z,98085.63
2018-11-06T04:15:05.506Z,98074.97
2018-11-06T04:18:10.517Z,98063.89
2018-11-06T04:21:15.534Z,98061.26
2018-11-06T04:24:29.301Z,98062.33
2018-11-06T04:27:34.290Z,98061.52
2018-11-06T04:30:39.261Z,98067.25
2018-11-06T04:33:44.242Z,98065.99
2018-11-06T04:36:49.271Z,98053.82
2018-11-06T04:39:54.241Z,98048.36
2018-11-06T04:42:59.228Z,98045.47
2018-11-06T04:46:04.530Z,98037.45
2018-11-06T04:49:09.507Z,98037.59
2018-11-06T04:52:14.472Z,98036.58
2018-11-06T04:55:19.465Z,98030.75
2018-11-06T04:58:24.438Z,98029.48
2018-11-06T05:01:29.408Z,98029.72
2018-11-06T05:04:34.475Z,98039.16
2018-11-06T05:07:41.953Z,98039.16
2018-11-06T05:10:46.990Z,98034.20
2018-11-06T05:15:12.878Z,98033.57
2018-11-06T05:18:17.973Z,98034.70
2018-11-06T05:21:22.957Z,98038.41
2018-11-06T05:27:58.842Z,98048.58
2018-11-06T05:31:04.236Z,98034.33
2018-11-06T05:34:17.759Z,98038.67
2018-11-06T05:37:22.755Z,98046.30
2018-11-06T05:40:39.400Z,98043.52
2018-11-06T05:43:50.444Z,98047.45
2018-11-06T05:46:55.389Z,98034.45
2018-11-06T05:50:00.547Z,98037.90
2018-11-06T05:53:05.559Z,98038.14
2018-11-06T05:56:10.545Z,98042.09
2018-11-06T05:59:15.579Z,98040.30
2018-11-06T06:02:20.573Z,98038.91
2018-11-06T06:05:25.542Z,98030.48
2018-11-06T06:08:30.525Z,98020.94
2018-11-06T06:11:35.489Z,98018.16
2018-11-06T06:14:40.480Z,98015.45
2018-11-06T06:17:46.236Z,98021.05
2018-11-06T06:20:51.222Z,98027.27
2018-11-06T06:23:56.209Z,98039.12
2018-11-06T06:27:01.190Z,98039.39
2018-11-06T06:30:08.682Z,98036.59
2018-11-06T06:33:13.685Z,98035.81
2018-11-06T06:36:18.695Z,98037.63
2018-11-06T06:39:23.724Z,98039.15
2018-11-06T06:45:59.677Z,98045.91
2018-11-06T06:49:04.885Z,98046.80
2018-11-06T06:52:09.837Z,98046.91
2018-11-06T06:55:15.517Z,98046.16
2018-11-06T06:58:20.514Z,98048.27
2018-11-06T07:01:25.527Z,98053.11
2018-11-06T07:04:30.711Z,98062.41
2018-11-06T07:07:36.505Z,98059.19
2018-11-06T07:10:41.545Z,98057.66
2018-11-06T07:13:46.610Z,98052.80
2018-11-06T07:16:51.625Z,98059.12
2018-11-06T07:19:56.793Z,98050.30
2018-11-06T07:23:01.798Z,98055.63
2018-11-06T07:26:06.893Z,98060.55
2018-11-06T07:32:43.077Z,98079.64
2018-11-06T07:35:48.297Z,98075.03
2018-11-06T07:38:53.033Z,98073.92
2018-11-06T07:41:58.603Z,98073.45
2018-11-06T07:45:04.061Z,98063.09
2018-11-06T07:48:14.846Z,98054.98
2018-11-06T07:51:20.053Z,98057.16
2018-11-06T07:54:25.024Z,98053.34
2018-11-06T07:57:30.011Z,98056.47
2018-11-06T08:00:35.002Z,98056.92
2018-11-06T08:03:39.990Z,98071.63
2018-11-06T08:06:44.971Z,98073.09
2018-11-06T08:09:50.009Z,98079.89
2018-11-06T08:12:54.955Z,98074.91
2018-11-06T08:16:13.089Z,98069.28
2018-11-06T08:19:18.418Z,98065.05
2018-11-06T08:22:23.549Z,98063.28
2018-11-06T08:25:28.518Z,98059.01
2018-11-06T08:28:33.531Z,98058.00
2018-11-06T08:31:39.055Z,98057.85
2018-11-06T08:34:43.541Z,98058.48
2018-11-06T08:37:48.555Z,98049.67
2018-11-06T08:41:03.978Z,98051.20
2018-11-06T08:44:08.972Z,98057.45
2018-11-06T08:47:13.989Z,98060.55
2018-11-06T08:50:19.438Z,98059.47
2018-11-06T08:53:28.242Z,98045.90
2018-11-06T08:56:34.876Z,98050.02
2018-11-06T08:59:41.985Z,98048.36
2018-11-06T09:02:49.104Z,98047.84
2018-11-06T09:05:54.090Z,98047.45
2018-11-06T09:09:00.787Z,98038.09
2018-11-06T09:12:07.454Z,98028.98
2018-11-06T09:15:13.592Z,98030.16
2018-11-06T09:18:18.666Z,98035.16
2018-11-06T09:21:25.746Z,98040.16
2018-11-06T09:24:32.469Z,98043.95
2018-11-06T09:27:37.684Z,98034.83
2018-11-06T09:30:42.791Z,98028.98
2018-11-06T09:33:47.959Z,98027.32
2018-11-06T09:36:54.450Z,98013.78
2018-11-06T09:40:02.089Z,98012.79
2018-11-06T09:43:07.183Z,98011.44
2018-11-06T09:46:12.279Z,98012.55
2018-11-06T09:49:19.178Z,98011.66
2018-11-06T09:52:26.258Z,98005.47
2018-11-06T09:55:33.468Z,98014.18
2018-11-06T09:58:40.492Z,98012.22
2018-11-06T10:01:47.092Z,98015.97
2018-11-06T10:04:52.162Z,98007.88
2018-11-06T10:07:58.773Z,98010.95
2018-11-06T10:11:03.851Z,98015.97
2018-11-06T10:14:10.649Z,98008.01
2018-11-06T10:17:15.617Z,98002.66
2018-11-06T10:23:51.645Z,98001.56
2018-11-06T10:26:56.634Z,97995.90
2018-11-06T10:30:01.621Z,97985.96
2018-11-06T10:33:06.645Z,97979.61
2018-11-06T10:36:11.657Z,97973.63
2018-11-06T10:39:16.631Z,97971.15
2018-11-06T10:42:21.648Z,97963.44
2018-11-06T10:45:26.643Z,97953.36
2018-11-06T10:48:31.641Z,97946.17
2018-11-06T10:51:36.628Z,97946.27
2018-11-06T10:54:41.581Z,97943.74
2018-11-06T10:57:46.585Z,97939.72
2018-11-06T11:00:57.573Z,97933.20
2018-11-06T11:04:08.229Z,97927.69
2018-11-06T11:07:13.225Z,97926.70
2018-11-06T11:10:18.224Z,97933.59
2018-11-06T11:13:23.301Z,97925.69
2018-11-06T11:16:28.285Z,97920.47
2018-11-06T11:19:33.324Z,97921.05
2018-11-06T11:22:38.644Z,97914.42
2018-11-06T11:25:43.748Z,97916.05
2018-11-06T11:28:48.686Z,97919.11
2018-11-06T11:31:53.678Z,97916.88
2018-11-06T11:34:58.651Z,97919.28
2018-11-06T11:38:03.675Z,97917.98
2018-11-06T11:41:28.322Z,97903.48
2018-11-06T11:44:33.566Z,97907.20
2018-11-06T11:47:39.029Z,97899.13
2018-11-06T11:50:44.025Z,97897.72
2018-11-06T11:53:55.722Z,97891.02
2018-11-06T11:57:00.701Z,97895.48
2018-11-06T12:00:08.100Z,97893.30
2018-11-06T12:03:13.143Z,97893.46
2018-11-06T12:06:18.163Z,97889.84
2018-11-06T12:09:23.146Z,97891.47
2018-11-06T12:15:07.700Z,97869.66
2018-11-06T12:18:12.680Z,97870.33
2018-11-06T12:21:17.650Z,97859.11
2018-11-06T12:24:22.717Z,97852.59
2018-11-06T12:27:27.662Z,97849.41
2018-11-06T12:30:32.645Z,97852.05
2018-11-06T12:33:37.622Z,97849.41
2018-11-06T12:36:42.592Z,97847.12
2018-11-06T12:39:47.576Z,97844.55
2018-11-06T12:42:52.621Z,97838.63
2018-11-06T12:45:57.527Z,97843.39
2018-11-06T12:49:02.514Z,97857.53
2018-11-06T12:52:07.466Z,97850.11
2018-11-06T12:58:43.733Z,97843.59
2018-11-06T13:01:48.756Z,97840.19
2018-11-06T13:04:53.690Z,97833.78
2018-11-06T13:07:58.661Z,97830.07
2018-11-06T13:11:03.649Z,97831.75
2018-11-06T13:14:09.245Z,97836.66
2018-11-06T13:17:14.443Z,97836.95
2018-11-06T13:20:19.437Z,97834.17
2018-11-06T13:23:24.431Z,97827.98
2018-11-06T13:26:31.582Z,97823.72
2018-11-06T13:29:36.373Z,97818.44
2018-11-06T13:32:41.936Z,97818.88
2018-11-06T13:35:46.966Z,97826.75
2018-11-06T13:38:51.961Z,97826.22
2018-11-06T13:41:57.009Z,97821.97
2018-11-06T13:45:02.140Z,97820.14
2018-11-06T13:48:06.937Z,97815.88
2018-11-06T13:51:13.719Z,97814.61
2018-11-06T13:54:18.708Z,97811.23
2018-11-06T13:57:23.677Z,97814.53
2018-11-06T14:00:29.153Z,97815.97
2018-11-06T14:03:34.453Z,97813.23
2018-11-06T14:06:39.463Z,97817.12
2018-11-06T14:09:44.483Z,97815.50
2018-11-06T14:12:49.485Z,97810.91
2018-11-06T14:15:54.444Z,97816.22
2018-11-06T14:18:59.439Z,97812.80
2018-11-06T14:22:04.996Z,97814.92
2018-11-06T14:25:09.957Z,97810.37
2018-11-06T14:28:14.975Z,97819.76
2018-11-06T14:31:19.990Z,97819.98
2018-11-06T14:34:42.156Z,97826.85
2018-11-06T14:37:47.497Z,97823.07
2018-11-06T14:40:52.472Z,97827.01
2018-11-06T14:43:57.457Z,97835.23
2018-11-06T14:47:21.782Z,97832.33
2018-11-06T14:50:26.765Z,97829.51
2018-11-06T14:53:31.757Z,97842.01
2018-11-06T14:56:36.778Z,97850.17
2018-11-06T14:59:42.010Z,97843.95
2018-11-06T15:03:07.352Z,97848.47
2018-11-06T15:06:12.354Z,97840.83
2018-11-06T15:09:17.379Z,97841.45
2018-11-06T15:12:22.429Z,97849.68
2018-11-06T15:15:27.453Z,97857.06
2018-11-06T15:18:32.453Z,97869.97
2018-11-06T15:21:37.421Z,97890.94
2018-11-06T15:24:42.453Z,97917.19
2018-11-06T15:27:47.565Z,97925.56
2018-11-06T15:30:52.604Z,97923.77
2018-11-06T15:33:57.653Z,97921.61
2018-11-06T15:37:02.694Z,97926.73
2018-11-06T15:40:09.736Z,97931.62
2018-11-06T15:43:14.904Z,97930.67
2018-11-06T15:46:19.932Z,97936.98
2018-11-06T15:49:24.970Z,97938.79
2018-11-06T15:52:30.063Z,97932.31
2018-11-06T15:55:35.116Z,97928.67
2018-11-06T15:58:40.137Z,97923.10
2018-11-06T16:05:16.498Z,97944.92
2018-11-06T16:08:21.593Z,97953.06
2018-11-06T16:11:26.528Z,97970.69
2018-11-06T16:14:31.514Z,97973.16
2018-11-06T16:17:37.374Z,97972.30
2018-11-06T16:20:42.381Z,97990.09
2018-11-06T16:23:47.537Z,97993.16
2018-11-06T16:26:52.561Z,97997.02
2018-11-06T16:29:57.889Z,97998.02
2018-11-06T16:33:02.936Z,97994.68
2018-11-06T16:36:08.034Z,98004.72
2018-11-06T16:39:13.032Z,98007.88
2018-11-06T16:42:18.198Z,98016.85
2018-11-06T16:45:23.384Z,98027.52
2018-11-06T16:48:28.516Z,98033.33
2018-11-06T16:51:33.713Z,98029.75
2018-11-06T16:54:38.695Z,98028.38
2018-11-06T16:57:44.353Z,98038.44
2018-11-06T17:00:49.493Z,98041.36
2018-11-06T17:03:54.426Z,98033.42
2018-11-06T17:06:59.474Z,98035.28
2018-11-06T17:10:06.315Z,98041.38
2018-11-06T17:13:11.282Z,98054.06
2018-11-06T17:16:16.457Z,98065.39
2018-11-06T17:19:21.466Z,98076.48
2018-11-06T17:22:26.492Z,98080.30
2018-11-06T17:25:31.536Z,98079.57
2018-11-06T17:28:36.510Z,98083.09
2018-11-06T17:31:41.509Z,98079.41
2018-11-06T17:34:46.533Z,98078.13
2018-11-06T17:37:51.518Z,98079.69
2018-11-06T17:40:56.552Z,98072.61
2018-11-06T17:44:01.590Z,98077.56
2018-11-06T17:47:06.583Z,98082.16
2018-11-06T17:50:12.821Z,98085.49
2018-11-06T17:53:17.826Z,98089.45
2018-11-06T17:56:22.965Z,98093.23
2018-11-06T17:59:28.570Z,98074.33
2018-11-06T18:02:33.550Z,98078.44
2018-11-06T18:05:38.574Z,98075.72
2018-11-06T18:08:43.630Z,98060.53
2018-11-06T18:11:48.779Z,98068.73
2018-11-06T18:14:53.814Z,98076.62
2018-11-06T18:17:59.070Z,98082.06
2018-11-06T18:21:04.533Z,98073.66
2018-11-06T18:24:09.585Z,98075.22
2018-11-06T18:30:25.976Z,98081.55
2018-11-06T18:33:30.978Z,98087.19
2018-11-06T18:36:35.998Z,98095.69
2018-11-06T18:39:41.008Z,98094.13
2018-11-06T18:42:46.954Z,98086.91
2018-11-06T18:45:52.193Z,98086.11
2018-11-06T18:48:57.389Z,98089.95
2018-11-06T18:52:02.462Z,98093.58
2018-11-06T18:55:07.671Z,98100.46
2018-11-06T18:58:12.862Z,98103.81
2018-11-06T19:01:17.887Z,98102.81
2018-11-06T19:04:22.939Z,98096.36
2018-11-06T19:07:27.977Z,98102.91
2018-11-06T19:10:33.074Z,98102.39
2018-11-06T19:13:38.481Z,98101.44
2018-11-06T19:16:43.587Z,98104.33
2018-11-06T19:19:48.633Z,98112.47
2018-11-06T19:22:55.748Z,98113.68
2018-11-06T19:26:00.746Z,98112.00
2018-11-06T19:29:06.794Z,98117.66
2018-11-06T19:32:12.107Z,98120.62
2018-11-06T19:35:17.183Z,98117.58
2018-11-06T19:38:22.160Z,98114.83
2018-11-06T19:41:27.684Z,98114.88
2018-11-06T19:44:32.670Z,98122.16
2018-11-06T19:51:08.873Z,98117.33
2018-11-06T19:54:14.233Z,98115.05
2018-11-06T19:57:19.166Z,98111.95
2018-11-06T20:00:24.347Z,98119.95
2018-11-06T20:03:29.477Z,98114.77
2018-11-06T20:06:34.509Z,98124.45
2018-11-06T20:09:41.303Z,98119.73
2018-11-06T20:12:47.365Z,98124.05
2018-11-06T20:15:52.430Z,98128.63
2018-11-06T20:18:57.471Z,98137.96
2018-11-06T20:22:02.550Z,98140.64
2018-11-06T20:25:07.669Z,98128.81
2018-11-06T20:28:12.687Z,98130.02
2018-11-06T20:31:17.730Z,98136.84
2018-11-06T20:34:22.706Z,98139.40
2018-11-06T20:37:27.825Z,98149.55
2018-11-06T20:40:32.813Z,98148.98
2018-11-06T20:43:37.855Z,98144.33
2018-11-06T20:46:42.952Z,98145.56
2018-11-06T20:49:48.071Z,98147.70
2018-11-06T20:52:53.229Z,98154.39
2018-11-06T20:55:58.164Z,98153.27
2018-11-06T20:59:03.170Z,98152.73
2018-11-06T21:02:08.242Z,98144.84
2018-11-06T21:05:13.979Z,98146.15
2018-11-06T21:08:21.256Z,98145.66
2018-11-06T21:25:30.876Z,98178.19
2018-11-06T21:28:35.933Z,98175.86
2018-11-06T21:31:40.981Z,98176.31
2018-11-06T21:34:45.939Z,98177.81
2018-11-06T21:37:50.956Z,98184.19
2018-11-06T21:40:55.934Z,98176.90
2018-11-06T21:47:12.863Z,98178.45
2018-11-06T21:50:18.353Z,98189.09
2018-11-06T21:53:23.428Z,98191.91
2018-11-06T21:56:28.404Z,98189.97
2018-11-06T21:59:33.459Z,98192.61
2018-11-06T22:02:38.473Z,98185.87
2018-11-06T22:05:43.452Z,98183.57
2018-11-06T22:08:48.446Z,98178.77
2018-11-06T22:11:53.452Z,98188.13
2018-11-06T22:14:58.414Z,98187.87
2018-11-06T22:18:03.412Z,98195.90
2018-11-06T22:21:08.387Z,98193.69
2018-11-06T22:24:14.241Z,98195.23
2018-11-06T22:27:19.222Z,98198.00
2018-11-06T22:30:24.241Z,98195.59
2018-11-06T22:33:29.290Z,98189.08
2018-11-06T22:36:34.277Z,98188.59
2018-11-06T22:46:41.509Z,98193.82
2018-11-06T22:49:46.488Z,98190.41
2018-11-06T22:52:51.467Z,98182.19
2018-11-06T22:55:56.453Z,98191.27
2018-11-06T22:59:01.449Z,98186.63
2018-11-06T23:02:06.455Z,98190.04
2018-11-06T23:05:11.468Z,98177.95
2018-11-06T23:08:22.125Z,98175.31
2018-11-06T23:11:27.117Z,98170.09
2018-11-06T23:14:32.183Z,98162.83
2018-11-06T23:17:37.234Z,98160.20
2018-11-06T23:20:42.223Z,98159.65
2018-11-06T23:23:47.201Z,98165.70
2018-11-06T23:26:52.162Z,98165.63
2018-11-06T23:29:57.138Z,98172.66
2018-11-06T23:33:02.146Z,98174.70
2018-11-06T23:36:07.125Z,98187.08
2018-11-06T23:39:12.111Z,98188.56
2018-11-06T23:50:15.125Z,98185.39
2018-11-06T23:53:20.133Z,98188.23
2018-11-06T23:56:25.188Z,98196.98
2018-11-06T23:59:30.365Z,98194.03
